createdAt,value
2023-04-18T00:00:26.174Z,80.80
2023-04-18T00:02:55.141Z,80.70
2023-04-18T00:05:23.648Z,80.50
2023-04-18T00:07:56.125Z,80.20
2023-04-18T00:10:26.832Z,80.10
2023-04-18T00:12:58.581Z,79.80
2023-04-18T00:15:26.590Z,79.70
2023-04-18T00:17:56.923Z,79.60
2023-04-18T00:20:27.375Z,79.40
2023-04-18T00:22:55.580Z,79.50
2023-04-18T00:25:22.871Z,79.50
2023-04-18T00:27:50.326Z,79.60
2023-04-18T00:30:18.036Z,79.60
2023-04-18T00:32:45.687Z,79.70
2023-04-18T00:35:16.317Z,79.80
2023-04-18T00:37:43.719Z,80.10
2023-04-18T00:40:11.517Z,80.20
2023-04-18T00:42:39.246Z,80.20
2023-04-18T00:45:07.327Z,80.40
2023-04-18T00:47:36.745Z,80.60
2023-04-18T00:50:09.464Z,80.70
2023-04-18T00:52:41.037Z,80.90
2023-04-18T00:55:09.255Z,81.10
2023-04-18T00:57:37.026Z,81.20
2023-04-18T01:00:13.281Z,81.30
2023-04-18T01:02:45.018Z,81.50
2023-04-18T01:05:18.728Z,81.60
2023-04-18T01:07:46.767Z,81.70
2023-04-18T01:10:14.841Z,82.00
2023-04-18T01:12:42.129Z,82.10
2023-04-18T01:15:09.605Z,82.30
2023-04-18T01:17:40.153Z,82.30
2023-04-18T01:20:09.071Z,82.40
2023-04-18T01:22:36.779Z,82.50
2023-04-18T01:25:08.908Z,82.50
2023-04-18T01:27:36.199Z,82.60
2023-04-18T01:30:04.619Z,82.80
2023-04-18T01:32:34.638Z,82.60
2023-04-18T01:35:02.059Z,82.90
2023-04-18T01:37:32.481Z,82.90
2023-04-18T01:40:04.582Z,82.90
2023-04-18T01:42:32.066Z,83.00
2023-04-18T01:44:59.536Z,83.00
2023-04-18T01:47:26.888Z,83.00
2023-04-18T01:49:54.342Z,83.00
2023-04-18T01:52:21.499Z,83.00
2023-04-18T01:54:48.727Z,83.20
2023-04-18T01:57:16.195Z,83.30
2023-04-18T01:59:43.357Z,83.30
2023-04-18T02:02:11.933Z,83.20
2023-04-18T02:04:39.191Z,83.50
2023-04-18T02:07:12.585Z,83.50
2023-04-18T02:09:39.730Z,83.50
2023-04-18T02:12:07.688Z,83.60
2023-04-18T02:14:37.439Z,83.60
2023-04-18T02:17:06.937Z,83.50
2023-04-18T02:19:34.208Z,83.40
2023-04-18T02:22:02.388Z,83.40
2023-04-18T02:24:29.645Z,83.40
2023-04-18T02:26:57.236Z,83.50
2023-04-18T02:29:24.593Z,83.40
2023-04-18T02:31:51.829Z,83.50
2023-04-18T02:34:19.198Z,83.60
2023-04-18T02:36:47.789Z,83.80
2023-04-18T02:39:18.007Z,83.80
2023-04-18T02:41:45.425Z,83.70
2023-04-18T02:44:13.037Z,83.70
2023-04-18T02:46:40.883Z,83.80
2023-04-18T02:49:08.489Z,83.70
2023-04-18T02:51:35.728Z,83.60
2023-04-18T02:54:02.965Z,83.50
2023-04-18T02:56:30.089Z,83.20
2023-04-18T02:58:57.410Z,83.10
2023-04-18T03:01:24.968Z,82.80
2023-04-18T03:03:52.791Z,82.70
2023-04-18T03:06:20.437Z,82.50
2023-04-18T03:08:47.866Z,81.90
2023-04-18T03:11:24.134Z,81.50
2023-04-18T03:13:51.701Z,81.40
2023-04-18T03:16:21.119Z,81.40
2023-04-18T03:18:48.419Z,81.40
2023-04-18T03:21:15.685Z,81.50
2023-04-18T03:23:43.446Z,81.50
2023-04-18T03:26:13.152Z,81.40
2023-04-18T03:28:41.592Z,81.10
2023-04-18T03:31:08.907Z,80.90
2023-04-18T03:33:36.320Z,80.60
2023-04-18T03:36:04.240Z,80.50
2023-04-18T03:38:31.644Z,80.40
2023-04-18T03:40:59.077Z,80.40
2023-04-18T03:43:28.549Z,80.30
2023-04-18T03:45:56.292Z,80.20
2023-04-18T03:48:23.615Z,80.00
2023-04-18T03:50:51.181Z,79.80
2023-04-18T03:53:19.045Z,79.80
2023-04-18T03:55:46.598Z,79.70
2023-04-18T03:58:14.624Z,79.60
2023-04-18T04:00:41.959Z,79.50
2023-04-18T04:03:09.592Z,79.60
2023-04-18T04:05:37.202Z,79.70
2023-04-18T04:08:04.681Z,79.60
2023-04-18T04:10:35.358Z,79.30
2023-04-18T04:13:03.258Z,79.10
2023-04-18T04:15:30.669Z,78.90
2023-04-18T04:17:58.241Z,78.70
2023-04-18T04:20:26.572Z,78.60
2023-04-18T04:22:56.724Z,78.60
2023-04-18T04:25:31.580Z,78.60
2023-04-18T04:28:02.061Z,78.60
2023-04-18T04:30:29.447Z,78.70
2023-04-18T04:33:04.276Z,78.60
2023-04-18T04:35:32.608Z,78.70
2023-04-18T04:38:01.769Z,78.70
2023-04-18T04:40:29.091Z,78.70
2023-04-18T04:42:57.336Z,78.60
2023-04-18T04:45:24.685Z,78.60
2023-04-18T04:47:52.132Z,78.60
2023-04-18T04:50:19.492Z,78.60
2023-04-18T04:52:47.212Z,78.50
2023-04-18T04:55:22.006Z,78.30
2023-04-18T04:57:49.899Z,78.30
2023-04-18T05:00:21.415Z,78.40
2023-04-18T05:02:49.939Z,78.30
2023-04-18T05:05:17.434Z,78.30
2023-04-18T05:07:45.040Z,78.30
2023-04-18T05:10:12.562Z,78.20
2023-04-18T05:12:40.005Z,78.10
2023-04-18T05:15:09.055Z,77.70
2023-04-18T05:17:39.321Z,77.60
2023-04-18T05:20:08.140Z,77.20
2023-04-18T05:22:38.187Z,76.80
2023-04-18T05:25:11.287Z,76.60
2023-04-18T05:27:39.033Z,76.30
2023-04-18T05:30:08.657Z,76.10
2023-04-18T05:32:36.574Z,75.50
2023-04-18T05:35:04.514Z,75.10
2023-04-18T05:37:34.071Z,75.00
2023-04-18T05:40:08.740Z,75.20
2023-04-18T05:42:49.011Z,73.30
2023-04-18T05:49:18.103Z,64.00
2023-04-18T05:51:53.075Z,54.10
2023-04-18T05:54:26.376Z,50.80
2023-04-18T05:57:06.230Z,48.70
2023-04-18T05:59:54.321Z,47.70
2023-04-18T06:02:22.564Z,45.50
2023-04-18T06:04:53.730Z,44.50
2023-04-18T06:07:26.158Z,44.30
2023-04-18T06:09:54.540Z,42.10
2023-04-18T06:12:34.690Z,41.40
2023-04-18T06:15:07.841Z,41.40
2023-04-18T06:17:40.758Z,39.70
2023-04-18T06:20:25.211Z,39.50
2023-04-18T06:22:56.336Z,38.90
2023-04-18T06:25:23.814Z,38.00
2023-04-18T06:28:00.571Z,36.10
2023-04-18T06:30:35.160Z,35.40
2023-04-18T06:33:07.547Z,34.50
2023-04-18T06:35:35.182Z,34.70
2023-04-18T06:38:07.142Z,34.40
2023-04-18T06:40:39.834Z,34.20
2023-04-18T06:43:15.236Z,33.40
2023-04-18T06:45:46.609Z,33.20
2023-04-18T06:48:21.328Z,33.40
2023-04-18T06:50:52.567Z,33.00
2023-04-18T06:53:20.896Z,33.00
2023-04-18T06:56:59.906Z,33.10
2023-04-18T06:59:15.592Z,32.00
2023-04-18T07:01:43.934Z,32.20
2023-04-18T07:04:12.105Z,32.30
2023-04-18T07:06:40.547Z,31.50
2023-04-18T07:09:09.693Z,31.10
2023-04-18T07:11:43.294Z,31.20
2023-04-18T07:14:14.486Z,31.00
2023-04-18T07:16:43.069Z,30.50
2023-04-18T07:19:13.031Z,29.70
2023-04-18T07:21:43.774Z,30.00
2023-04-18T07:24:32.489Z,29.50
2023-04-18T07:27:18.539Z,29.40
2023-04-18T07:29:49.413Z,29.20
2023-04-18T07:32:21.610Z,29.00
2023-04-18T07:35:15.290Z,28.70
2023-04-18T07:38:04.846Z,29.00
2023-04-18T07:40:41.259Z,28.90
2023-04-18T07:43:09.723Z,28.40
2023-04-18T07:45:39.190Z,28.60
2023-04-18T07:48:34.875Z,28.60
2023-04-18T07:51:27.010Z,28.10
2023-04-18T07:54:09.911Z,28.40
2023-04-18T07:56:44.808Z,28.80
2023-04-18T07:59:12.954Z,29.10
2023-04-18T08:01:42.845Z,29.00
2023-04-18T08:04:15.079Z,29.30
2023-04-18T08:06:42.784Z,29.40
2023-04-18T08:09:10.971Z,29.90
2023-04-18T08:11:47.397Z,29.90
2023-04-18T08:14:17.924Z,29.20
2023-04-18T08:16:45.712Z,28.90
2023-04-18T08:19:13.683Z,29.00
2023-04-18T08:21:48.505Z,29.10
2023-04-18T08:24:24.603Z,29.00
2023-04-18T08:26:58.093Z,28.80
2023-04-18T08:29:31.077Z,28.60
2023-04-18T08:32:14.751Z,27.80
2023-04-18T08:34:47.305Z,28.20
2023-04-18T08:37:24.596Z,28.20
2023-04-18T08:40:02.299Z,28.60
2023-04-18T08:42:38.261Z,28.80
2023-04-18T08:45:09.774Z,28.40
2023-04-18T08:48:25.658Z,28.20
2023-04-18T08:50:58.770Z,28.30
2023-04-18T08:54:01.377Z,28.30
2023-04-18T09:00:05.738Z,27.80
2023-04-18T09:03:27.253Z,27.90
2023-04-18T09:06:21.069Z,27.40
2023-04-18T09:09:11.197Z,27.10
2023-04-18T09:11:39.014Z,26.50
2023-04-18T09:14:06.683Z,26.40
2023-04-18T09:16:56.684Z,26.50
2023-04-18T09:19:34.439Z,26.50
2023-04-18T09:22:21.361Z,26.30
2023-04-18T09:24:58.553Z,26.40
2023-04-18T09:27:27.041Z,26.20
2023-04-18T09:30:04.391Z,25.10
2023-04-18T09:32:33.861Z,25.00
2023-04-18T09:35:06.729Z,24.90
2023-04-18T09:37:35.941Z,25.00
2023-04-18T09:40:20.143Z,25.10
2023-04-18T09:42:49.481Z,25.10
2023-04-18T09:45:17.141Z,25.40
2023-04-18T09:47:53.829Z,25.40
2023-04-18T09:50:21.506Z,25.70
2023-04-18T09:52:58.987Z,25.70
2023-04-18T09:55:37.676Z,25.50
2023-04-18T09:58:09.630Z,25.20
2023-04-18T10:03:50.030Z,27.30
2023-04-18T10:06:18.392Z,28.50
2023-04-18T10:08:48.408Z,28.90
2023-04-18T10:11:18.012Z,28.90
2023-04-18T10:13:49.116Z,29.10
2023-04-18T10:16:20.351Z,28.80
2023-04-18T10:18:52.885Z,29.00
2023-04-18T10:21:22.358Z,28.80
2023-04-18T10:23:50.548Z,29.20
2023-04-18T10:26:20.585Z,29.50
2023-04-18T10:29:02.633Z,29.40
2023-04-18T10:31:42.607Z,29.30
2023-04-18T10:34:17.539Z,28.70
2023-04-18T10:37:26.690Z,28.40
2023-04-18T10:39:54.887Z,28.60
2023-04-18T10:42:48.624Z,28.30
2023-04-18T10:45:20.189Z,28.10
2023-04-18T10:47:53.736Z,28.60
2023-04-18T10:51:04.479Z,29.20
2023-04-18T10:53:31.915Z,29.90
2023-04-18T10:56:03.229Z,30.50
2023-04-18T10:58:32.201Z,30.80
2023-04-18T11:01:03.962Z,31.30
2023-04-18T11:03:35.010Z,32.20
2023-04-18T11:06:03.476Z,32.70
2023-04-18T11:08:47.737Z,33.20
2023-04-18T11:11:15.254Z,33.70
2023-04-18T11:14:00.628Z,33.50
2023-04-18T11:16:31.758Z,33.40
2023-04-18T11:19:17.384Z,33.10
2023-04-18T11:21:45.048Z,33.30
2023-04-18T11:24:23.560Z,33.70
2023-04-18T11:26:57.647Z,34.10
2023-04-18T11:29:25.597Z,34.00
2023-04-18T11:31:58.231Z,34.20
2023-04-18T11:34:31.201Z,34.20
2023-04-18T11:36:59.173Z,34.20
2023-04-18T11:39:26.352Z,33.90
2023-04-18T11:41:58.367Z,34.00
2023-04-18T11:44:32.701Z,33.70
2023-04-18T11:47:02.357Z,34.30
2023-04-18T11:49:33.559Z,33.20
2023-04-18T11:52:07.001Z,33.00
2023-04-18T11:54:41.223Z,33.00
2023-04-18T11:57:34.278Z,33.00
2023-04-18T12:00:07.520Z,32.90
2023-04-18T12:02:43.660Z,33.00
2023-04-18T12:05:17.207Z,33.20
2023-04-18T12:07:48.082Z,32.70
2023-04-18T12:10:30.229Z,33.20
2023-04-18T12:12:59.684Z,33.20
2023-04-18T12:15:29.229Z,33.40
2023-04-18T12:18:02.161Z,33.30
2023-04-18T12:20:40.090Z,33.30
2023-04-18T12:23:07.982Z,33.70
2023-04-18T12:25:36.661Z,34.00
2023-04-18T12:28:15.251Z,33.90
2023-04-18T12:30:43.398Z,33.90
2023-04-18T12:33:16.511Z,33.40
2023-04-18T12:35:44.273Z,33.20
2023-04-18T12:38:12.519Z,32.80
2023-04-18T12:40:43.482Z,32.70
2023-04-18T12:43:11.251Z,32.80
2023-04-18T12:45:39.268Z,32.40
2023-04-18T12:48:07.536Z,32.70
2023-04-18T12:50:35.416Z,33.30
2023-04-18T12:53:03.194Z,33.70
2023-04-18T12:55:31.793Z,34.00
2023-04-18T12:57:59.063Z,33.80
2023-04-18T13:00:28.952Z,34.70
2023-04-18T13:02:57.361Z,34.90
2023-04-18T13:05:31.545Z,35.20
2023-04-18T13:10:34.653Z,36.50
2023-04-18T13:13:01.931Z,36.70
2023-04-18T13:15:29.141Z,37.00
2023-04-18T13:17:57.114Z,37.10
2023-04-18T13:20:25.246Z,37.30
2023-04-18T13:22:52.325Z,37.50
2023-04-18T13:25:19.705Z,37.70
2023-04-18T13:27:47.778Z,37.90
2023-04-18T13:30:21.211Z,38.10
2023-04-18T13:32:49.153Z,38.40
2023-04-18T13:35:17.043Z,38.40
2023-04-18T13:37:48.711Z,38.20
2023-04-18T13:40:16.441Z,38.00
2023-04-18T13:42:43.884Z,37.90
2023-04-18T13:45:12.364Z,37.70
2023-04-18T13:47:44.956Z,37.50
2023-04-18T13:50:12.552Z,37.20
2023-04-18T13:52:39.871Z,37.60
2023-04-18T13:55:12.610Z,38.20
2023-04-18T13:57:41.551Z,38.50
2023-04-18T14:00:10.005Z,38.40
2023-04-18T14:02:39.808Z,38.30
2023-04-18T14:05:09.510Z,37.90
2023-04-18T14:07:38.841Z,37.40
2023-04-18T14:10:06.959Z,37.40
2023-04-18T14:12:35.229Z,37.60
2023-04-18T14:15:02.798Z,37.50
2023-04-18T14:17:33.311Z,37.80
2023-04-18T14:20:02.119Z,37.60
2023-04-18T14:22:35.178Z,37.70
2023-04-18T14:25:05.161Z,37.60
2023-04-18T14:27:45.785Z,38.60
2023-04-18T14:30:19.770Z,39.80
2023-04-18T14:32:50.013Z,40.70
2023-04-18T14:35:17.942Z,40.90
2023-04-18T14:37:45.293Z,41.40
2023-04-18T14:40:42.794Z,42.00
2023-04-18T14:43:33.864Z,42.00
2023-04-18T14:46:01.407Z,42.10
2023-04-18T14:48:30.396Z,42.20
2023-04-18T14:51:03.909Z,42.60
2023-04-18T14:53:31.679Z,42.00
2023-04-18T14:55:59.128Z,42.50
2023-04-18T14:58:33.487Z,42.10
2023-04-18T15:01:02.405Z,42.60
2023-04-18T15:03:33.410Z,42.80
2023-04-18T15:06:04.062Z,42.90
2023-04-18T15:08:32.844Z,43.30
2023-04-18T15:11:05.752Z,43.50
2023-04-18T15:13:34.274Z,43.90
2023-04-18T15:16:04.197Z,43.80
2023-04-18T15:18:32.540Z,44.20
2023-04-18T15:21:02.823Z,44.50
2023-04-18T15:23:30.310Z,43.50
2023-04-18T15:25:59.801Z,43.30
2023-04-18T15:28:27.847Z,42.70
2023-04-18T15:30:56.422Z,42.20
2023-04-18T15:34:41.909Z,42.50
2023-04-18T15:38:08.218Z,42.30
2023-04-18T15:41:21.716Z,42.20
2023-04-18T15:43:49.464Z,42.60
2023-04-18T15:46:19.587Z,42.90
2023-04-18T15:48:47.307Z,42.90
2023-04-18T15:51:14.854Z,43.20
2023-04-18T15:53:42.599Z,43.40
2023-04-18T15:56:10.150Z,43.90
2023-04-18T15:58:37.621Z,44.10
2023-04-18T16:01:06.010Z,44.30
2023-04-18T16:03:33.724Z,44.70
2023-04-18T16:06:01.336Z,45.00
2023-04-18T16:08:33.089Z,45.40
2023-04-18T16:11:00.653Z,45.80
2023-04-18T16:13:28.132Z,46.20
2023-04-18T16:15:57.674Z,46.50
2023-04-18T16:18:25.644Z,46.70
2023-04-18T16:20:55.889Z,46.90
2023-04-18T16:23:27.891Z,47.20
2023-04-18T16:25:58.569Z,47.60
2023-04-18T16:28:25.930Z,47.90
2023-04-18T16:30:55.606Z,48.00
2023-04-18T16:33:26.281Z,48.90
2023-04-18T16:35:59.878Z,49.20
2023-04-18T16:38:30.526Z,49.20
2023-04-18T16:41:01.103Z,49.00
2023-04-18T16:43:31.711Z,48.60
2023-04-18T16:46:00.660Z,48.90
2023-04-18T16:48:34.884Z,49.00
2023-04-18T16:51:02.202Z,49.30
2023-04-18T16:53:29.538Z,49.30
2023-04-18T16:55:57.089Z,49.60
2023-04-18T16:58:24.359Z,49.60
2023-04-18T17:00:52.816Z,49.60
2023-04-18T17:03:23.090Z,49.80
2023-04-18T17:05:51.091Z,49.90
2023-04-18T17:08:18.758Z,50.00
2023-04-18T17:10:51.565Z,50.30
2023-04-18T17:13:19.379Z,50.30
2023-04-18T17:15:46.948Z,50.50
2023-04-18T17:18:14.433Z,50.70
2023-04-18T17:20:41.598Z,51.00
2023-04-18T17:23:12.622Z,51.00
2023-04-18T17:25:41.155Z,51.00
2023-04-18T17:28:09.046Z,50.90
2023-04-18T17:30:42.924Z,50.60
2023-04-18T17:33:11.160Z,50.90
2023-04-18T17:35:41.950Z,50.60
2023-04-18T17:38:14.493Z,50.60
2023-04-18T17:40:42.073Z,50.60
2023-04-18T17:43:12.471Z,50.60
2023-04-18T17:45:40.176Z,50.60
2023-04-18T17:48:07.582Z,51.00
2023-04-18T17:50:37.233Z,51.20
2023-04-18T17:53:05.001Z,51.70
2023-04-18T17:55:32.238Z,51.90
2023-04-18T17:57:59.427Z,52.60
2023-04-18T18:00:26.865Z,52.70
2023-04-18T18:02:54.308Z,52.80
2023-04-18T18:05:22.000Z,52.60
2023-04-18T18:07:50.011Z,52.50
2023-04-18T18:10:23.962Z,52.10
2023-04-18T18:12:54.355Z,51.80
2023-04-18T18:15:22.083Z,51.20
2023-04-18T18:17:50.071Z,51.00
2023-04-18T18:20:18.304Z,50.80
2023-04-18T18:22:46.504Z,50.80
2023-04-18T18:25:14.946Z,50.80
2023-04-18T18:27:42.631Z,50.60
2023-04-18T18:30:12.753Z,50.50
2023-04-18T18:32:40.959Z,50.30
2023-04-18T18:35:08.788Z,50.20
2023-04-18T18:37:36.320Z,49.70
2023-04-18T18:40:07.635Z,49.70
2023-04-18T18:42:34.885Z,49.40
2023-04-18T18:45:03.089Z,49.40
2023-04-18T18:47:32.473Z,49.40
2023-04-18T18:50:00.243Z,49.40
2023-04-18T18:52:29.806Z,49.50
2023-04-18T18:54:57.365Z,49.50
2023-04-18T18:57:25.184Z,49.10
2023-04-18T18:59:53.883Z,48.40
2023-04-18T19:02:23.364Z,48.30
2023-04-18T19:04:51.498Z,47.70
2023-04-18T19:07:18.667Z,46.60
2023-04-18T19:09:49.085Z,46.40
2023-04-18T19:12:16.634Z,46.00
2023-04-18T19:14:45.109Z,45.70
2023-04-18T19:17:13.109Z,45.30
2023-04-18T19:19:40.447Z,45.40
2023-04-18T19:22:07.565Z,45.10
2023-04-18T19:24:35.062Z,45.10
2023-04-18T19:27:05.458Z,44.80
2023-04-18T19:29:33.082Z,44.90
2023-04-18T19:32:00.287Z,44.50
2023-04-18T19:34:27.693Z,44.40
2023-04-18T19:36:54.920Z,44.20
2023-04-18T19:39:22.425Z,44.20
2023-04-18T19:41:49.609Z,43.90
2023-04-18T19:44:16.977Z,43.70
2023-04-18T19:46:46.296Z,43.80
2023-04-18T19:49:14.204Z,43.80
2023-04-18T19:51:44.324Z,43.80
2023-04-18T19:54:11.719Z,43.80
2023-04-18T19:56:38.882Z,43.60
2023-04-18T19:59:06.710Z,43.40
2023-04-18T20:01:36.485Z,43.40
2023-04-18T20:04:11.894Z,43.20
2023-04-18T20:06:39.294Z,43.20
2023-04-18T20:09:06.736Z,43.30
2023-04-18T20:11:34.238Z,43.20
2023-04-18T20:14:07.508Z,43.40
2023-04-18T20:16:35.114Z,43.30
2023-04-18T20:19:04.331Z,43.20
2023-04-18T20:21:31.956Z,43.10
2023-04-18T20:23:59.449Z,43.20
2023-04-18T20:26:26.964Z,43.10
2023-04-18T20:28:54.621Z,43.30
2023-04-18T20:31:22.282Z,43.30
2023-04-18T20:33:49.624Z,43.40
2023-04-18T20:36:18.757Z,43.50
2023-04-18T20:38:46.483Z,43.40
2023-04-18T20:41:15.142Z,43.40
2023-04-18T20:43:43.343Z,43.40
2023-04-18T20:46:17.071Z,43.30
2023-04-18T20:48:44.560Z,43.30
2023-04-18T20:51:11.644Z,43.30
2023-04-18T20:53:39.012Z,43.30
2023-04-18T20:56:06.721Z,43.20
2023-04-18T20:58:33.966Z,43.30
2023-04-18T21:01:02.270Z,43.20
2023-04-18T21:03:29.910Z,43.20
2023-04-18T21:05:57.272Z,43.10
2023-04-18T21:08:24.526Z,43.30
2023-04-18T21:10:52.592Z,43.40
2023-04-18T21:13:20.259Z,43.30
2023-04-18T21:15:49.856Z,43.40
2023-04-18T21:18:17.154Z,43.70
2023-04-18T21:20:44.521Z,43.60
2023-04-18T21:23:12.690Z,43.70
2023-04-18T21:25:40.178Z,43.80
2023-04-18T21:28:09.336Z,43.90
2023-04-18T21:30:36.913Z,44.20
2023-04-18T21:33:04.551Z,44.40
2023-04-18T21:35:32.635Z,44.40
2023-04-18T21:37:59.960Z,44.60
2023-04-18T21:40:27.380Z,44.40
2023-04-18T21:42:54.824Z,44.60
2023-04-18T21:45:22.354Z,44.60
2023-04-18T21:47:49.808Z,44.60
2023-04-18T21:50:20.623Z,44.70
2023-04-18T21:52:47.955Z,44.70
2023-04-18T21:55:15.292Z,44.70
2023-04-18T21:57:42.564Z,44.50
2023-04-18T22:00:11.358Z,44.30
2023-04-18T22:02:41.041Z,44.50
2023-04-18T22:05:09.307Z,44.40
2023-04-18T22:07:50.624Z,44.40
2023-04-18T22:10:22.928Z,44.40
2023-04-18T22:12:56.320Z,44.40
2023-04-18T22:15:31.902Z,44.40
2023-04-18T22:17:59.484Z,44.30
2023-04-18T22:20:26.899Z,44.10
2023-04-18T22:22:54.658Z,44.20
2023-04-18T22:25:21.845Z,44.30
2023-04-18T22:27:49.199Z,44.40
2023-04-18T22:30:17.168Z,44.30
2023-04-18T22:32:44.560Z,44.40
2023-04-18T22:35:11.678Z,44.50
2023-04-18T22:37:38.957Z,44.50
2023-04-18T22:40:07.104Z,44.60
2023-04-18T22:42:35.591Z,44.30
2023-04-18T22:45:05.100Z,44.40
2023-04-18T22:47:36.214Z,44.40
2023-04-18T22:50:03.450Z,44.50
2023-04-18T22:52:31.285Z,44.70
2023-04-18T22:54:58.408Z,44.50
2023-04-18T22:57:25.773Z,44.60
2023-04-18T22:59:53.131Z,44.40
2023-04-18T23:02:22.935Z,44.50
2023-04-18T23:04:51.260Z,44.50
2023-04-18T23:07:18.424Z,44.50
2023-04-18T23:09:45.704Z,44.60
2023-04-18T23:12:12.775Z,44.60
2023-04-18T23:14:41.832Z,44.80
2023-04-18T23:17:09.565Z,44.80
2023-04-18T23:19:37.073Z,44.80
2023-04-18T23:22:09.300Z,44.70
2023-04-18T23:24:36.855Z,44.90
2023-04-18T23:27:04.408Z,44.80
2023-04-18T23:29:31.806Z,44.80
2023-04-18T23:31:59.137Z,44.80
2023-04-18T23:34:26.416Z,44.70
2023-04-18T23:36:53.804Z,44.90
2023-04-18T23:39:21.708Z,44.90
2023-04-18T23:41:50.510Z,44.90
2023-04-18T23:44:17.608Z,44.90
2023-04-18T23:46:45.061Z,44.90
2023-04-18T23:49:12.312Z,44.90
2023-04-18T23:51:39.876Z,45.10
2023-04-18T23:54:07.859Z,45.10
2023-04-18T23:56:35.320Z,45.20
2023-04-18T23:59:05.986Z,45.20
